createdAt,value
2023-04-08T00:00:50.109Z,15.45
2023-04-08T00:03:17.318Z,21.35
2023-04-08T00:05:44.295Z,18.88
2023-04-08T00:08:11.350Z,17.13
2023-04-08T00:10:38.229Z,15.23
2023-04-08T00:13:05.269Z,15.23
2023-04-08T00:15:32.090Z,18.30
2023-04-08T00:17:58.960Z,17.63
2023-04-08T00:20:25.890Z,18.75
2023-04-08T00:22:52.774Z,19.13
2023-04-08T00:25:19.836Z,16.35
2023-04-08T00:27:46.682Z,22.05
2023-04-08T00:30:13.498Z,13.95
2023-04-08T00:32:40.410Z,15.23
2023-04-08T00:35:07.682Z,15.65
2023-04-08T00:37:35.131Z,13.95
2023-04-08T00:40:02.106Z,21.00
2023-04-08T00:42:30.962Z,15.05
2023-04-08T00:44:57.861Z,14.23
2023-04-08T00:47:24.939Z,16.35
2023-04-08T00:49:52.250Z,17.25
2023-04-08T00:52:19.147Z,13.07
2023-04-08T00:54:46.326Z,13.02
2023-04-08T00:57:13.281Z,14.63
2023-04-08T00:59:41.005Z,16.40
2023-04-08T01:02:23.049Z,16.67
2023-04-08T01:05:22.740Z,10.95
2023-04-08T01:07:50.553Z,13.88
2023-04-08T01:10:29.417Z,19.23
2023-04-08T01:13:05.943Z,11.82
2023-04-08T01:15:35.556Z,13.80
2023-04-08T01:18:07.359Z,13.43
2023-04-08T01:20:34.868Z,12.05
2023-04-08T01:23:01.945Z,10.80
2023-04-08T01:25:38.146Z,11.05
2023-04-08T01:28:11.398Z,11.75
2023-04-08T01:30:42.694Z,12.48
2023-04-08T01:33:15.455Z,13.98
2023-04-08T01:35:42.769Z,10.30
2023-04-08T01:38:14.349Z,12.65
2023-04-08T01:40:42.380Z,11.88
2023-04-08T01:43:11.021Z,12.73
2023-04-08T01:45:37.854Z,10.88
2023-04-08T01:48:07.221Z,13.32
2023-04-08T01:50:35.268Z,11.57
2023-04-08T01:53:04.806Z,10.57
2023-04-08T01:55:33.197Z,11.18
2023-04-08T01:58:01.429Z,10.80
2023-04-08T02:00:34.976Z,10.98
2023-04-08T02:03:05.835Z,13.85
2023-04-08T02:05:32.851Z,12.55
2023-04-08T02:07:59.879Z,10.88
2023-04-08T02:10:26.827Z,12.10
2023-04-08T02:12:54.000Z,13.85
2023-04-08T02:15:21.024Z,11.52
2023-04-08T02:17:50.646Z,19.92
2023-04-08T02:20:40.082Z,16.02
2023-04-08T02:23:16.510Z,11.48
2023-04-08T02:25:46.065Z,11.18
2023-04-08T02:28:13.959Z,12.15
2023-04-08T02:30:52.211Z,13.57
2023-04-08T02:33:23.417Z,12.43
2023-04-08T02:35:54.867Z,11.98
2023-04-08T02:38:24.206Z,11.55
2023-04-08T02:40:51.689Z,13.18
2023-04-08T02:43:18.782Z,13.40
2023-04-08T02:45:46.238Z,12.13
2023-04-08T02:48:13.265Z,12.98
2023-04-08T02:50:40.966Z,13.57
2023-04-08T02:53:09.491Z,12.07
2023-04-08T02:55:36.614Z,14.07
2023-04-08T02:58:03.511Z,16.92
2023-04-08T03:00:30.557Z,14.10
2023-04-08T03:02:57.578Z,13.43
2023-04-08T03:05:26.108Z,13.25
2023-04-08T03:07:53.216Z,12.75
2023-04-08T03:10:20.074Z,13.25
2023-04-08T03:12:46.986Z,12.45
2023-04-08T03:15:13.796Z,13.05
2023-04-08T03:17:41.012Z,16.70
2023-04-08T03:20:08.758Z,13.32
2023-04-08T03:22:36.672Z,12.18
2023-04-08T03:25:04.471Z,18.02
2023-04-08T03:27:31.391Z,13.45
2023-04-08T03:29:58.330Z,14.32
2023-04-08T03:32:25.956Z,15.65
2023-04-08T03:34:53.536Z,14.82
2023-04-08T03:37:20.557Z,13.60
2023-04-08T03:39:47.389Z,15.27
2023-04-08T03:42:14.303Z,13.85
2023-04-08T03:44:41.201Z,17.52
2023-04-08T03:47:08.013Z,17.05
2023-04-08T03:49:34.814Z,15.13
2023-04-08T03:52:02.168Z,13.63
2023-04-08T03:54:28.987Z,18.33
2023-04-08T03:56:55.914Z,15.63
2023-04-08T03:59:23.182Z,16.15
2023-04-08T04:01:51.497Z,16.38
2023-04-08T04:04:18.800Z,15.63
2023-04-08T04:06:46.111Z,15.20
2023-04-08T04:09:13.121Z,19.10
2023-04-08T04:11:39.937Z,14.73
2023-04-08T04:14:06.760Z,14.63
2023-04-08T04:16:33.546Z,16.35
2023-04-08T04:19:00.728Z,17.17
2023-04-08T04:21:27.789Z,17.75
2023-04-08T04:23:54.735Z,20.98
2023-04-08T04:26:21.670Z,16.17
2023-04-08T04:28:49.027Z,18.13
2023-04-08T04:31:23.615Z,17.00
2023-04-08T04:33:50.600Z,16.83
2023-04-08T04:36:17.834Z,21.13
2023-04-08T04:38:45.446Z,16.33
2023-04-08T04:41:12.553Z,19.90
2023-04-08T04:43:39.539Z,17.35
2023-04-08T04:46:09.044Z,17.83
2023-04-08T04:48:36.498Z,18.67
2023-04-08T04:51:03.468Z,19.77
2023-04-08T04:53:31.691Z,18.13
2023-04-08T04:56:01.332Z,18.38
2023-04-08T04:58:28.877Z,17.80
2023-04-08T05:00:56.486Z,21.48
2023-04-08T05:03:23.636Z,17.35
2023-04-08T05:05:54.772Z,18.45
2023-04-08T05:08:22.487Z,17.48
2023-04-08T05:10:52.630Z,19.60
2023-04-08T05:13:19.774Z,19.83
2023-04-08T05:15:46.855Z,24.98
2023-04-08T05:18:14.262Z,19.77
2023-04-08T05:20:41.218Z,18.20
2023-04-08T05:23:08.801Z,16.23
2023-04-08T05:25:36.292Z,19.48
2023-04-08T05:28:03.980Z,20.00
2023-04-08T05:30:31.547Z,22.55
2023-04-08T05:33:00.405Z,19.23
2023-04-08T05:35:28.241Z,20.83
2023-04-08T05:37:55.287Z,20.40
2023-04-08T05:40:22.155Z,20.77
2023-04-08T05:42:49.243Z,22.48
2023-04-08T05:45:16.404Z,29.08
2023-04-08T05:47:43.475Z,20.63
2023-04-08T05:50:11.534Z,24.00
2023-04-08T05:52:41.974Z,23.70
2023-04-08T05:55:09.228Z,20.25
2023-04-08T05:57:36.201Z,19.90
2023-04-08T06:00:08.298Z,20.23
2023-04-08T06:02:36.584Z,21.17
2023-04-08T06:05:04.615Z,22.63
2023-04-08T06:07:32.891Z,21.70
2023-04-08T06:09:59.682Z,21.55
2023-04-08T06:12:26.504Z,19.85
2023-04-08T06:14:56.840Z,18.52
2023-04-08T06:17:23.792Z,20.67
2023-04-08T06:19:50.705Z,22.73
2023-04-08T06:22:17.526Z,16.90
2023-04-08T06:24:44.354Z,19.83
2023-04-08T06:27:11.494Z,20.75
2023-04-08T06:29:38.275Z,21.80
2023-04-08T06:32:06.267Z,19.25
2023-04-08T06:34:33.203Z,20.70
2023-04-08T06:36:59.940Z,19.63
2023-04-08T06:39:26.948Z,20.77
2023-04-08T06:41:54.623Z,18.48
2023-04-08T06:44:21.429Z,20.20
2023-04-08T06:46:48.208Z,22.55
2023-04-08T06:49:15.017Z,19.80
2023-04-08T06:51:41.826Z,21.42
2023-04-08T06:54:10.178Z,20.75
2023-04-08T06:56:37.537Z,20.63
2023-04-08T06:59:05.747Z,20.45
2023-04-08T07:01:32.988Z,23.88
2023-04-08T07:04:02.253Z,23.05
2023-04-08T07:06:29.186Z,21.98
2023-04-08T07:08:57.111Z,19.92
2023-04-08T07:11:23.875Z,22.42
2023-04-08T07:13:50.905Z,23.00
2023-04-08T07:16:17.691Z,20.90
2023-04-08T07:18:44.637Z,27.30
2023-04-08T07:21:11.665Z,21.30
2023-04-08T07:23:38.489Z,22.00
2023-04-08T07:26:05.431Z,21.92
2023-04-08T07:28:32.632Z,22.08
2023-04-08T07:31:14.332Z,20.20
2023-04-08T07:33:41.508Z,21.48
2023-04-08T07:36:10.622Z,21.27
2023-04-08T07:38:38.463Z,22.92
2023-04-08T07:41:05.853Z,17.83
2023-04-08T07:43:34.544Z,21.23
2023-04-08T07:46:05.093Z,19.88
2023-04-08T07:48:32.696Z,22.80
2023-04-08T07:51:12.233Z,21.50
2023-04-08T07:53:40.507Z,18.75
2023-04-08T07:56:15.206Z,19.45
2023-04-08T07:58:42.550Z,18.27
2023-04-08T08:01:18.737Z,17.40
2023-04-08T08:03:47.685Z,17.55
2023-04-08T08:06:15.352Z,19.00
2023-04-08T08:08:42.266Z,18.60
2023-04-08T08:11:09.240Z,16.02
2023-04-08T08:13:36.076Z,19.17
2023-04-08T08:16:03.073Z,19.02
2023-04-08T08:18:29.916Z,22.38
2023-04-08T08:20:56.863Z,16.92
2023-04-08T08:23:23.694Z,18.38
2023-04-08T08:25:58.894Z,17.88
2023-04-08T08:28:25.673Z,15.82
2023-04-08T08:30:52.661Z,19.45
2023-04-08T08:33:19.598Z,17.10
2023-04-08T08:35:46.730Z,15.57
2023-04-08T08:38:14.042Z,17.08
2023-04-08T08:40:40.916Z,16.50
2023-04-08T08:43:07.741Z,17.77
2023-04-08T08:45:34.538Z,18.83
2023-04-08T08:48:01.448Z,19.83
2023-04-08T08:50:28.523Z,18.15
2023-04-08T08:52:55.495Z,18.02
2023-04-08T08:55:41.463Z,16.80
2023-04-08T08:58:10.166Z,19.40
2023-04-08T09:00:45.117Z,18.67
2023-04-08T09:03:28.013Z,16.23
2023-04-08T09:06:00.453Z,16.15
2023-04-08T09:08:32.043Z,17.88
2023-04-08T09:11:20.322Z,16.63
2023-04-08T09:13:47.533Z,17.38
2023-04-08T09:16:19.910Z,20.25
2023-04-08T09:18:49.220Z,19.10
2023-04-08T09:21:17.692Z,18.38
2023-04-08T09:23:46.692Z,15.32
2023-04-08T09:26:14.837Z,14.60
2023-04-08T09:28:43.044Z,17.25
2023-04-08T09:31:24.562Z,16.13
2023-04-08T09:33:54.708Z,15.63
2023-04-08T09:36:22.070Z,16.52
2023-04-08T09:38:49.141Z,18.05
2023-04-08T09:41:23.721Z,16.65
2023-04-08T09:43:52.333Z,15.60
2023-04-08T09:46:41.697Z,15.63
2023-04-08T09:49:15.832Z,20.30
2023-04-08T09:51:49.975Z,17.10
2023-04-08T09:54:23.064Z,16.67
2023-04-08T09:57:05.604Z,21.00
2023-04-08T09:59:36.825Z,15.60
2023-04-08T10:02:10.153Z,17.42
2023-04-08T10:04:39.749Z,19.02
2023-04-08T10:09:49.502Z,17.52
2023-04-08T10:12:16.654Z,17.85
2023-04-08T10:15:26.361Z,18.42
2023-04-08T10:17:55.255Z,20.08
2023-04-08T10:20:37.085Z,21.60
2023-04-08T10:23:05.530Z,19.52
2023-04-08T10:25:36.795Z,21.35
2023-04-08T10:28:16.306Z,19.35
2023-04-08T10:30:44.057Z,18.45
2023-04-08T10:33:13.473Z,20.27
2023-04-08T10:35:47.688Z,17.92
2023-04-08T10:38:16.063Z,20.73
2023-04-08T10:40:44.002Z,20.05
2023-04-08T10:43:12.477Z,20.75
2023-04-08T10:45:40.782Z,20.10
2023-04-08T10:48:23.079Z,24.17
2023-04-08T10:50:58.505Z,19.95
2023-04-08T10:53:28.993Z,19.50
2023-04-08T10:56:05.839Z,22.73
2023-04-08T10:58:32.829Z,22.20
2023-04-08T11:01:07.707Z,20.48
2023-04-08T11:03:36.099Z,22.85
2023-04-08T11:06:03.906Z,24.42
2023-04-08T11:08:34.187Z,22.25
2023-04-08T11:11:02.112Z,21.70
2023-04-08T11:13:30.218Z,22.40
2023-04-08T11:16:00.797Z,23.52
2023-04-08T11:18:28.641Z,21.58
2023-04-08T11:20:56.392Z,20.20
2023-04-08T11:23:27.397Z,19.40
2023-04-08T11:25:54.842Z,22.48
2023-04-08T11:28:23.226Z,20.35
2023-04-08T11:30:50.420Z,24.90
2023-04-08T11:33:17.615Z,24.95
2023-04-08T11:35:44.676Z,20.27
2023-04-08T11:38:12.311Z,22.80
2023-04-08T11:40:39.593Z,20.02
2023-04-08T11:43:11.029Z,21.38
2023-04-08T11:45:41.208Z,20.10
2023-04-08T11:48:11.960Z,23.27
2023-04-08T11:50:38.799Z,23.92
2023-04-08T11:53:16.308Z,25.13
2023-04-08T11:55:43.190Z,20.55
2023-04-08T11:58:10.035Z,19.50
2023-04-08T12:00:37.470Z,17.98
2023-04-08T12:03:04.873Z,21.50
2023-04-08T12:05:31.829Z,17.38
2023-04-08T12:07:58.637Z,19.77
2023-04-08T12:10:25.598Z,19.48
2023-04-08T12:12:52.517Z,16.70
2023-04-08T12:15:19.522Z,18.48
2023-04-08T12:17:46.758Z,19.17
2023-04-08T12:20:13.980Z,17.52
2023-04-08T12:22:40.856Z,16.88
2023-04-08T12:25:07.900Z,17.15
2023-04-08T12:27:34.842Z,16.10
2023-04-08T12:30:02.778Z,16.63
2023-04-08T12:32:29.897Z,18.50
2023-04-08T12:34:56.906Z,13.90
2023-04-08T12:37:23.781Z,16.83
2023-04-08T12:39:50.677Z,17.27
2023-04-08T12:42:17.505Z,15.30
2023-04-08T12:44:44.353Z,18.52
2023-04-08T12:47:11.355Z,14.23
2023-04-08T12:52:08.581Z,21.48
2023-04-08T12:54:35.588Z,14.57
2023-04-08T12:57:03.033Z,16.70
2023-04-08T12:59:29.958Z,15.30
2023-04-08T13:01:56.758Z,14.05
2023-04-08T13:04:23.640Z,14.57
2023-04-08T13:06:51.622Z,15.10
2023-04-08T13:09:18.630Z,15.02
2023-04-08T13:11:45.895Z,12.88
2023-04-08T13:14:13.744Z,18.20
2023-04-08T13:16:40.608Z,16.13
2023-04-08T13:19:07.509Z,17.60
2023-04-08T13:21:34.316Z,14.05
2023-04-08T13:24:01.124Z,14.43
2023-04-08T13:26:28.802Z,12.38
2023-04-08T13:28:57.705Z,13.32
2023-04-08T13:31:25.944Z,13.15
2023-04-08T13:33:55.281Z,14.05
2023-04-08T13:36:23.984Z,12.20
2023-04-08T13:38:51.052Z,16.45
2023-04-08T13:41:18.208Z,15.75
2023-04-08T13:43:45.136Z,15.77
2023-04-08T13:46:11.965Z,14.50
2023-04-08T13:48:38.810Z,13.90
2023-04-08T13:51:05.590Z,14.45
2023-04-08T13:53:32.490Z,11.98
2023-04-08T13:55:59.345Z,15.95
2023-04-08T13:58:29.168Z,12.27
2023-04-08T14:00:56.511Z,13.10
2023-04-08T14:03:23.471Z,13.65
2023-04-08T14:05:51.237Z,11.27
2023-04-08T14:08:25.051Z,15.27
2023-04-08T14:10:52.524Z,12.25
2023-04-08T14:13:19.385Z,20.48
2023-04-08T14:15:46.965Z,13.38
2023-04-08T14:18:14.086Z,12.55
2023-04-08T14:20:41.451Z,10.63
2023-04-08T14:23:08.241Z,15.07
2023-04-08T14:25:35.247Z,12.68
2023-04-08T14:28:02.204Z,12.68
2023-04-08T14:30:29.172Z,12.73
2023-04-08T14:32:56.620Z,14.07
2023-04-08T14:35:23.484Z,13.10
2023-04-08T14:37:50.378Z,12.68
2023-04-08T14:40:17.254Z,14.52
2023-04-08T14:42:45.558Z,12.10
2023-04-08T14:45:13.336Z,12.65
2023-04-08T14:47:40.219Z,14.88
2023-04-08T14:50:07.860Z,13.38
2023-04-08T14:52:34.691Z,12.93
2023-04-08T14:55:01.637Z,13.77
2023-04-08T14:57:28.744Z,13.68
2023-04-08T14:59:55.637Z,15.00
2023-04-08T15:02:22.544Z,14.00
2023-04-08T15:04:49.466Z,15.07
2023-04-08T15:07:16.272Z,14.02
2023-04-08T15:09:43.055Z,17.23
2023-04-08T15:12:10.284Z,15.32
2023-04-08T15:14:37.676Z,15.75
2023-04-08T15:17:04.495Z,17.85
2023-04-08T15:19:31.326Z,17.13
2023-04-08T15:21:58.127Z,16.67
2023-04-08T15:24:24.979Z,18.15
2023-04-08T15:26:52.097Z,15.98
2023-04-08T15:29:19.135Z,18.45
2023-04-08T15:31:45.942Z,16.92
2023-04-08T15:34:12.768Z,19.48
2023-04-08T15:36:39.849Z,18.27
2023-04-08T15:39:06.962Z,20.58
2023-04-08T15:41:33.781Z,16.90
2023-04-08T15:44:00.638Z,28.08
2023-04-08T15:46:27.685Z,19.05
2023-04-08T15:48:54.989Z,19.40
2023-04-08T15:51:22.074Z,21.65
2023-04-08T15:53:51.648Z,18.95
2023-04-08T15:56:18.808Z,19.60
2023-04-08T15:58:46.445Z,20.58
2023-04-08T16:01:13.521Z,21.92
2023-04-08T16:03:40.986Z,20.92
2023-04-08T16:06:08.719Z,21.75
2023-04-08T16:08:35.785Z,19.13
2023-04-08T16:11:04.780Z,19.38
2023-04-08T16:13:31.976Z,27.15
2023-04-08T16:16:01.571Z,20.80
2023-04-08T16:18:29.283Z,20.55
2023-04-08T16:20:56.984Z,17.48
2023-04-08T16:23:24.094Z,21.65
2023-04-08T16:25:52.052Z,19.17
2023-04-08T16:28:19.039Z,21.02
2023-04-08T16:30:47.943Z,19.35
2023-04-08T16:33:14.924Z,19.77
2023-04-08T16:35:41.881Z,23.33
2023-04-08T16:38:09.257Z,20.13
2023-04-08T16:40:36.211Z,19.67
2023-04-08T16:43:05.510Z,20.80
2023-04-08T16:45:32.775Z,22.40
2023-04-08T16:48:00.590Z,20.98
2023-04-08T16:50:28.608Z,20.48
2023-04-08T16:52:55.529Z,20.75
2023-04-08T16:55:22.476Z,19.73
2023-04-08T16:57:49.337Z,20.15
2023-04-08T17:00:18.091Z,21.67
2023-04-08T17:02:47.349Z,21.00
2023-04-08T17:05:14.584Z,21.90
2023-04-08T17:07:41.789Z,19.63
2023-04-08T17:10:09.202Z,18.33
2023-04-08T17:12:36.415Z,21.45
2023-04-08T17:15:03.829Z,25.05
2023-04-08T17:17:30.925Z,22.60
2023-04-08T17:19:58.269Z,20.88
2023-04-08T17:22:25.586Z,18.33
2023-04-08T17:24:52.667Z,18.70
2023-04-08T17:27:19.691Z,20.25
2023-04-08T17:29:46.610Z,19.13
2023-04-08T17:32:13.694Z,20.27
2023-04-08T17:34:41.089Z,18.05
2023-04-08T17:37:10.292Z,19.42
2023-04-08T17:39:40.994Z,19.27
2023-04-08T17:42:08.553Z,16.83
2023-04-08T17:44:36.299Z,18.25
2023-04-08T17:47:04.225Z,18.67
2023-04-08T17:49:31.326Z,17.33
2023-04-08T17:51:58.134Z,16.08
2023-04-08T17:54:25.073Z,16.95
2023-04-08T17:56:52.123Z,19.30
2023-04-08T17:59:18.998Z,19.92
2023-04-08T18:01:46.058Z,21.63
2023-04-08T18:04:13.913Z,17.00
2023-04-08T18:06:40.884Z,23.33
2023-04-08T18:09:07.851Z,20.83
2023-04-08T18:11:34.888Z,18.45
2023-04-08T18:14:01.738Z,19.20
2023-04-08T18:16:28.874Z,21.45
2023-04-08T18:18:55.850Z,18.92
2023-04-08T18:21:22.840Z,19.67
2023-04-08T18:23:50.660Z,21.05
2023-04-08T18:26:17.943Z,20.25
2023-04-08T18:28:44.934Z,19.73
2023-04-08T18:31:12.020Z,18.90
2023-04-08T18:33:39.233Z,21.75
2023-04-08T18:36:12.371Z,22.15
2023-04-08T18:38:40.930Z,18.70
2023-04-08T18:41:08.566Z,20.60
2023-04-08T18:43:36.155Z,20.52
2023-04-08T18:46:04.704Z,17.23
2023-04-08T18:48:31.782Z,21.38
2023-04-08T18:50:58.755Z,21.52
2023-04-08T18:53:25.624Z,22.52
2023-04-08T18:55:52.745Z,19.25
2023-04-08T18:58:19.746Z,19.88
2023-04-08T19:00:46.652Z,25.48
2023-04-08T19:03:13.739Z,22.20
2023-04-08T19:05:41.031Z,25.90
2023-04-08T19:08:08.087Z,18.50
2023-04-08T19:10:35.322Z,21.55
2023-04-08T19:13:02.855Z,19.08
2023-04-08T19:15:30.068Z,21.27
2023-04-08T19:17:57.236Z,21.90
2023-04-08T19:20:24.228Z,17.85
2023-04-08T19:22:55.394Z,19.42
2023-04-08T19:25:22.330Z,22.30
2023-04-08T19:27:49.240Z,22.58
2023-04-08T19:30:16.406Z,17.85
2023-04-08T19:32:43.432Z,22.65
2023-04-08T19:35:13.498Z,19.45
2023-04-08T19:37:40.983Z,22.55
2023-04-08T19:40:09.150Z,22.25
2023-04-08T19:42:36.550Z,20.70
2023-04-08T19:45:03.909Z,24.77
2023-04-08T19:47:30.840Z,23.70
2023-04-08T19:49:58.325Z,25.30
2023-04-08T19:52:25.755Z,24.55
2023-04-08T19:54:53.247Z,22.17
2023-04-08T19:57:20.761Z,23.60
2023-04-08T19:59:50.314Z,25.55
2023-04-08T20:02:17.365Z,24.60
2023-04-08T20:04:45.700Z,22.52
2023-04-08T20:07:13.689Z,23.15
2023-04-08T20:09:40.829Z,27.60
2023-04-08T20:12:07.765Z,20.50
2023-04-08T20:14:36.586Z,22.02
2023-04-08T20:17:04.523Z,20.58
2023-04-08T20:19:31.492Z,22.77
2023-04-08T20:21:58.725Z,22.77
2023-04-08T20:24:26.385Z,20.00
2023-04-08T20:26:53.619Z,21.63
2023-04-08T20:29:20.745Z,23.80
2023-04-08T20:31:47.915Z,23.00
2023-04-08T20:34:14.853Z,21.02
2023-04-08T20:36:42.437Z,24.00
2023-04-08T20:39:12.244Z,22.77
2023-04-08T20:41:39.256Z,23.08
2023-04-08T20:44:08.524Z,25.20
2023-04-08T20:46:35.542Z,25.92
2023-04-08T20:49:03.855Z,27.02
2023-04-08T20:51:32.608Z,23.98
2023-04-08T20:53:59.971Z,28.23
2023-04-08T20:56:27.351Z,25.27
2023-04-08T20:58:54.563Z,26.67
2023-04-08T21:01:23.935Z,25.83
2023-04-08T21:03:51.003Z,29.20
2023-04-08T21:06:21.226Z,25.15
2023-04-08T21:08:48.889Z,27.25
2023-04-08T21:11:16.403Z,29.50
2023-04-08T21:13:43.445Z,29.08
2023-04-08T21:16:10.462Z,22.98
2023-04-08T21:18:40.715Z,23.95
2023-04-08T21:21:09.552Z,23.55
2023-04-08T21:23:36.472Z,24.27
2023-04-08T21:26:03.769Z,23.20
2023-04-08T21:28:32.623Z,24.80
2023-04-08T21:31:08.704Z,26.70
2023-04-08T21:33:36.041Z,23.10
2023-04-08T21:36:03.094Z,23.05
2023-04-08T21:38:30.386Z,25.75
2023-04-08T21:40:57.397Z,26.67
2023-04-08T21:43:24.551Z,25.15
2023-04-08T21:45:53.520Z,23.67
2023-04-08T21:48:21.380Z,25.42
2023-04-08T21:50:49.293Z,22.75
2023-04-08T21:53:16.776Z,23.10
2023-04-08T21:55:43.769Z,22.05
2023-04-08T21:58:12.394Z,23.63
2023-04-08T22:00:39.532Z,21.77
2023-04-08T22:03:07.472Z,22.48
2023-04-08T22:05:34.667Z,22.38
2023-04-08T22:08:02.269Z,21.20
2023-04-08T22:10:29.251Z,19.65
2023-04-08T22:12:56.143Z,20.60
2023-04-08T22:15:23.197Z,21.50
2023-04-08T22:17:50.346Z,21.95
2023-04-08T22:20:17.274Z,25.13
2023-04-08T22:22:44.232Z,18.83
2023-04-08T22:25:11.307Z,22.10
2023-04-08T22:27:38.335Z,23.02
2023-04-08T22:30:10.265Z,22.05
2023-04-08T22:32:40.337Z,24.90
2023-04-08T22:35:07.895Z,26.73
2023-04-08T22:37:35.048Z,23.23
2023-04-08T22:40:02.704Z,26.13
2023-04-08T22:42:29.627Z,25.33
2023-04-08T22:44:57.113Z,26.45
2023-04-08T22:47:24.011Z,24.55
2023-04-08T22:49:51.099Z,25.65
2023-04-08T22:52:17.984Z,30.02
2023-04-08T22:54:45.122Z,28.05
2023-04-08T22:57:12.025Z,24.63
2023-04-08T22:59:39.032Z,27.83
2023-04-08T23:02:06.024Z,24.52
2023-04-08T23:04:33.178Z,26.42
2023-04-08T23:07:00.106Z,26.55
2023-04-08T23:09:27.362Z,26.27
2023-04-08T23:11:54.222Z,28.08
2023-04-08T23:14:21.179Z,23.98
2023-04-08T23:16:48.132Z,27.20
2023-04-08T23:19:15.588Z,26.90
2023-04-08T23:21:42.964Z,25.65
2023-04-08T23:24:10.089Z,27.40
2023-04-08T23:26:36.925Z,28.05
2023-04-08T23:29:03.793Z,23.48
2023-04-08T23:31:30.863Z,27.25
2023-04-08T23:33:58.087Z,27.63
2023-04-08T23:36:24.960Z,22.73
2023-04-08T23:38:52.287Z,27.27
2023-04-08T23:41:19.431Z,25.20
2023-04-08T23:43:47.041Z,27.65
2023-04-08T23:46:16.747Z,26.92
2023-04-08T23:48:43.743Z,24.85
2023-04-08T23:51:11.843Z,26.42
2023-04-08T23:53:38.719Z,25.65
2023-04-08T23:56:11.405Z,23.75
2023-04-08T23:58:38.332Z,25.15
